sensor_id;sensor_type;location;lat;lon;timestamp;P1;durP1;ratioP1;P2;durP2;ratioP2
8819;SDS011;4446;50.876;4.736;2022-07-01T00:02:14;4.47;;;3.95;;
8819;SDS011;4446;50.876;4.736;2022-07-01T00:04:41;5.22;;;4.13;;
8819;SDS011;4446;50.876;4.736;2022-07-01T00:07:08;5.32;;;3.88;;
8819;SDS011;4446;50.876;4.736;2022-07-01T00:09:37;5.32;;;3.78;;
8819;SDS011;4446;50.876;4.736;2022-07-01T00:12:04;5.80;;;4.15;;
8819;SDS011;4446;50.876;4.736;2022-07-01T00:14:32;6.22;;;4.22;;
8819;SDS011;4446;50.876;4.736;2022-07-01T00:16:59;5.32;;;4.10;;
8819;SDS011;4446;50.876;4.736;2022-07-01T00:19:28;5.43;;;3.97;;
8819;SDS011;4446;50.876;4.736;2022-07-01T00:21:55;5.05;;;3.58;;
8819;SDS011;4446;50.876;4.736;2022-07-01T00:24:22;4.30;;;3.90;;
8819;SDS011;4446;50.876;4.736;2022-07-01T00:26:49;4.45;;;3.80;;
8819;SDS011;4446;50.876;4.736;2022-07-01T00:29:17;5.93;;;4.55;;
8819;SDS011;4446;50.876;4.736;2022-07-01T00:31:44;9.35;;;4.72;;
8819;SDS011;4446;50.876;4.736;2022-07-01T00:34:11;4.97;;;3.70;;
8819;SDS011;4446;50.876;4.736;2022-07-01T00:36:40;5.65;;;4.13;;
8819;SDS011;4446;50.876;4.736;2022-07-01T00:39:07;6.20;;;4.40;;
8819;SDS011;4446;50.876;4.736;2022-07-01T00:41:34;6.97;;;4.93;;
8819;SDS011;4446;50.876;4.736;2022-07-01T00:44:01;6.57;;;4.72;;
8819;SDS011;4446;50.876;4.736;2022-07-01T00:46:28;6.47;;;4.30;;
8819;SDS011;4446;50.876;4.736;2022-07-01T00:48:56;6.78;;;4.97;;
8819;SDS011;4446;50.876;4.736;2022-07-01T00:51:25;7.57;;;5.03;;
8819;SDS011;4446;50.876;4.736;2022-07-01T00:53:53;6.93;;;4.72;;
8819;SDS011;4446;50.876;4.736;2022-07-01T00:56:23;5.53;;;4.90;;
8819;SDS011;4446;50.876;4.736;2022-07-01T00:58:50;10.45;;;5.18;;
8819;SDS011;4446;50.876;4.736;2022-07-01T01:01:17;7.75;;;4.80;;
8819;SDS011;4446;50.876;4.736;2022-07-01T01:03:46;6.93;;;5.32;;
8819;SDS011;4446;50.876;4.736;2022-07-01T01:06:13;7.15;;;5.07;;
8819;SDS011;4446;50.876;4.736;2022-07-01T01:08:41;8.20;;;5.00;;
8819;SDS011;4446;50.876;4.736;2022-07-01T01:11:09;10.02;;;5.55;;
8819;SDS011;4446;50.876;4.736;2022-07-01T01:13:37;7.35;;;5.32;;
8819;SDS011;4446;50.876;4.736;2022-07-01T01:16:04;10.77;;;5.32;;
8819;SDS011;4446;50.876;4.736;2022-07-01T01:18:32;7.72;;;5.47;;
8819;SDS011;4446;50.876;4.736;2022-07-01T01:21:01;8.10;;;5.50;;
8819;SDS011;4446;50.876;4.736;2022-07-01T01:23:28;11.20;;;5.88;;
8819;SDS011;4446;50.876;4.736;2022-07-01T01:25:55;7.97;;;5.75;;
8819;SDS011;4446;50.876;4.736;2022-07-01T01:28:23;7.90;;;5.60;;
8819;SDS011;4446;50.876;4.736;2022-07-01T01:30:51;9.15;;;5.40;;
8819;SDS011;4446;50.876;4.736;2022-07-01T01:33:18;11.35;;;6.50;;
8819;SDS011;4446;50.876;4.736;2022-07-01T01:35:45;8.45;;;5.80;;
8819;SDS011;4446;50.876;4.736;2022-07-01T01:38:14;9.10;;;6.47;;
8819;SDS011;4446;50.876;4.736;2022-07-01T01:40:43;9.88;;;6.72;;
8819;SDS011;4446;50.876;4.736;2022-07-01T01:43:10;12.10;;;6.40;;
8819;SDS011;4446;50.876;4.736;2022-07-01T01:45:37;12.52;;;6.68;;
8819;SDS011;4446;50.876;4.736;2022-07-01T01:48:04;10.15;;;6.60;;
8819;SDS011;4446;50.876;4.736;2022-07-01T01:50:31;10.13;;;6.28;;
8819;SDS011;4446;50.876;4.736;2022-07-01T01:52:58;10.77;;;7.03;;
8819;SDS011;4446;50.876;4.736;2022-07-01T01:55:27;10.75;;;6.47;;
8819;SDS011;4446;50.876;4.736;2022-07-01T01:57:55;9.80;;;6.88;;
8819;SDS011;4446;50.876;4.736;2022-07-01T02:00:22;10.07;;;6.53;;
8819;SDS011;4446;50.876;4.736;2022-07-01T02:02:50;10.65;;;6.50;;
8819;SDS011;4446;50.876;4.736;2022-07-01T02:05:17;11.88;;;6.65;;
8819;SDS011;4446;50.876;4.736;2022-07-01T02:07:44;11.45;;;7.05;;
8819;SDS011;4446;50.876;4.736;2022-07-01T02:10:11;11.95;;;6.90;;
8819;SDS011;4446;50.876;4.736;2022-07-01T02:12:40;11.23;;;7.80;;
8819;SDS011;4446;50.876;4.736;2022-07-01T02:15:07;13.07;;;7.55;;
8819;SDS011;4446;50.876;4.736;2022-07-01T02:17:34;12.50;;;7.97;;
8819;SDS011;4446;50.876;4.736;2022-07-01T02:20:01;13.43;;;7.97;;
8819;SDS011;4446;50.876;4.736;2022-07-01T02:22:29;13.23;;;7.65;;
8819;SDS011;4446;50.876;4.736;2022-07-01T02:24:56;10.73;;;7.03;;
8819;SDS011;4446;50.876;4.736;2022-07-01T02:27:23;14.32;;;7.57;;
8819;SDS011;4446;50.876;4.736;2022-07-01T02:29:51;10.57;;;6.85;;
8819;SDS011;4446;50.876;4.736;2022-07-01T02:32:19;11.15;;;7.13;;
8819;SDS011;4446;50.876;4.736;2022-07-01T02:34:46;10.93;;;6.78;;
8819;SDS011;4446;50.876;4.736;2022-07-01T02:37:13;12.52;;;7.20;;
8819;SDS011;4446;50.876;4.736;2022-07-01T02:39:40;12.82;;;7.38;;
8819;SDS011;4446;50.876;4.736;2022-07-01T02:42:07;12.80;;;6.78;;
8819;SDS011;4446;50.876;4.736;2022-07-01T02:44:52;10.88;;;7.20;;
8819;SDS011;4446;50.876;4.736;2022-07-01T02:47:20;12.52;;;7.70;;
8819;SDS011;4446;50.876;4.736;2022-07-01T02:49:47;11.77;;;7.18;;
8819;SDS011;4446;50.876;4.736;2022-07-01T02:52:16;13.48;;;7.43;;
8819;SDS011;4446;50.876;4.736;2022-07-01T02:54:44;12.35;;;7.20;;
8819;SDS011;4446;50.876;4.736;2022-07-01T02:57:11;13.90;;;7.45;;
8819;SDS011;4446;50.876;4.736;2022-07-01T02:59:38;13.32;;;7.70;;
8819;SDS011;4446;50.876;4.736;2022-07-01T03:02:06;12.63;;;7.30;;
8819;SDS011;4446;50.876;4.736;2022-07-01T03:04:33;15.73;;;8.20;;
8819;SDS011;4446;50.876;4.736;2022-07-01T03:07:00;11.05;;;7.25;;
8819;SDS011;4446;50.876;4.736;2022-07-01T03:09:27;15.05;;;8.15;;
8819;SDS011;4446;50.876;4.736;2022-07-01T03:11:54;14.55;;;8.40;;
8819;SDS011;4446;50.876;4.736;2022-07-01T03:14:21;16.90;;;8.63;;
8819;SDS011;4446;50.876;4.736;2022-07-01T03:16:48;14.80;;;8.43;;
8819;SDS011;4446;50.876;4.736;2022-07-01T03:19:17;16.90;;;8.10;;
8819;SDS011;4446;50.876;4.736;2022-07-01T03:21:44;16.65;;;8.23;;
8819;SDS011;4446;50.876;4.736;2022-07-01T03:24:11;19.60;;;8.13;;
8819;SDS011;4446;50.876;4.736;2022-07-01T03:26:38;14.82;;;8.35;;
8819;SDS011;4446;50.876;4.736;2022-07-01T03:29:05;14.43;;;7.80;;
8819;SDS011;4446;50.876;4.736;2022-07-01T03:31:32;14.48;;;7.85;;
8819;SDS011;4446;50.876;4.736;2022-07-01T03:33:59;14.30;;;8.13;;
8819;SDS011;4446;50.876;4.736;2022-07-01T03:36:27;13.63;;;8.00;;
8819;SDS011;4446;50.876;4.736;2022-07-01T03:38:54;12.88;;;7.60;;
8819;SDS011;4446;50.876;4.736;2022-07-01T03:41:21;15.05;;;8.80;;
8819;SDS011;4446;50.876;4.736;2022-07-01T03:43:48;15.70;;;8.43;;
8819;SDS011;4446;50.876;4.736;2022-07-01T03:46:15;13.57;;;8.57;;
8819;SDS011;4446;50.876;4.736;2022-07-01T03:48:43;17.48;;;8.10;;
8819;SDS011;4446;50.876;4.736;2022-07-01T03:51:10;16.73;;;8.57;;
8819;SDS011;4446;50.876;4.736;2022-07-01T03:53:38;15.85;;;8.27;;
8819;SDS011;4446;50.876;4.736;2022-07-01T03:56:22;14.93;;;7.78;;
8819;SDS011;4446;50.876;4.736;2022-07-01T03:58:49;13.05;;;8.05;;
8819;SDS011;4446;50.876;4.736;2022-07-01T04:01:16;13.25;;;7.55;;
8819;SDS011;4446;50.876;4.736;2022-07-01T04:03:43;12.68;;;8.10;;
8819;SDS011;4446;50.876;4.736;2022-07-01T04:06:10;17.77;;;7.97;;
8819;SDS011;4446;50.876;4.736;2022-07-01T04:08:39;18.23;;;8.00;;
8819;SDS011;4446;50.876;4.736;2022-07-01T04:11:06;13.85;;;7.75;;
8819;SDS011;4446;50.876;4.736;2022-07-01T04:13:34;13.85;;;8.07;;
8819;SDS011;4446;50.876;4.736;2022-07-01T04:16:02;13.50;;;8.40;;
8819;SDS011;4446;50.876;4.736;2022-07-01T04:18:29;15.63;;;8.35;;
8819;SDS011;4446;50.876;4.736;2022-07-01T04:20:57;14.48;;;7.95;;
8819;SDS011;4446;50.876;4.736;2022-07-01T04:23:44;14.15;;;8.25;;
8819;SDS011;4446;50.876;4.736;2022-07-01T04:26:11;17.38;;;8.82;;
8819;SDS011;4446;50.876;4.736;2022-07-01T04:28:38;15.43;;;8.77;;
8819;SDS011;4446;50.876;4.736;2022-07-01T04:31:05;15.50;;;7.97;;
8819;SDS011;4446;50.876;4.736;2022-07-01T04:33:32;16.75;;;8.65;;
8819;SDS011;4446;50.876;4.736;2022-07-01T04:35:59;14.35;;;7.57;;
8819;SDS011;4446;50.876;4.736;2022-07-01T04:38:26;11.52;;;7.45;;
8819;SDS011;4446;50.876;4.736;2022-07-01T04:40:55;13.15;;;7.43;;
8819;SDS011;4446;50.876;4.736;2022-07-01T04:43:39;13.75;;;7.70;;
8819;SDS011;4446;50.876;4.736;2022-07-01T04:46:06;13.20;;;6.70;;
8819;SDS011;4446;50.876;4.736;2022-07-01T04:48:33;13.27;;;7.22;;
8819;SDS011;4446;50.876;4.736;2022-07-01T04:51:00;12.00;;;6.97;;
8819;SDS011;4446;50.876;4.736;2022-07-01T04:53:27;13.88;;;7.80;;
8819;SDS011;4446;50.876;4.736;2022-07-01T04:55:55;14.25;;;7.40;;
8819;SDS011;4446;50.876;4.736;2022-07-01T04:58:23;15.15;;;7.03;;
8819;SDS011;4446;50.876;4.736;2022-07-01T05:00:50;12.77;;;7.00;;
8819;SDS011;4446;50.876;4.736;2022-07-01T05:03:17;11.60;;;6.85;;
8819;SDS011;4446;50.876;4.736;2022-07-01T05:05:44;12.57;;;6.90;;
8819;SDS011;4446;50.876;4.736;2022-07-01T05:08:11;13.10;;;7.00;;
8819;SDS011;4446;50.876;4.736;2022-07-01T05:10:38;15.60;;;7.93;;
8819;SDS011;4446;50.876;4.736;2022-07-01T05:13:06;13.05;;;7.40;;
8819;SDS011;4446;50.876;4.736;2022-07-01T05:15:33;14.77;;;8.00;;
8819;SDS011;4446;50.876;4.736;2022-07-01T05:18:01;16.65;;;7.90;;
8819;SDS011;4446;50.876;4.736;2022-07-01T05:20:45;21.25;;;9.65;;
8819;SDS011;4446;50.876;4.736;2022-07-01T05:23:29;17.83;;;8.63;;
8819;SDS011;4446;50.876;4.736;2022-07-01T05:25:56;19.25;;;8.90;;
8819;SDS011;4446;50.876;4.736;2022-07-01T05:28:25;19.73;;;8.95;;
8819;SDS011;4446;50.876;4.736;2022-07-01T05:30:52;19.65;;;8.68;;
8819;SDS011;4446;50.876;4.736;2022-07-01T05:33:19;15.77;;;7.47;;
8819;SDS011;4446;50.876;4.736;2022-07-01T05:35:46;14.77;;;8.02;;
8819;SDS011;4446;50.876;4.736;2022-07-01T05:38:13;18.92;;;8.38;;
8819;SDS011;4446;50.876;4.736;2022-07-01T05:40:42;16.98;;;8.23;;
8819;SDS011;4446;50.876;4.736;2022-07-01T05:43:10;16.30;;;7.32;;
8819;SDS011;4446;50.876;4.736;2022-07-01T05:45:38;17.90;;;8.00;;
8819;SDS011;4446;50.876;4.736;2022-07-01T05:48:06;10.85;;;7.18;;
8819;SDS011;4446;50.876;4.736;2022-07-01T05:50:33;14.60;;;6.50;;
8819;SDS011;4446;50.876;4.736;2022-07-01T05:53:00;14.40;;;7.28;;
8819;SDS011;4446;50.876;4.736;2022-07-01T05:55:27;9.55;;;5.65;;
8819;SDS011;4446;50.876;4.736;2022-07-01T05:57:54;13.52;;;6.72;;
8819;SDS011;4446;50.876;4.736;2022-07-01T06:00:21;14.88;;;6.72;;
8819;SDS011;4446;50.876;4.736;2022-07-01T06:02:50;13.25;;;6.75;;
8819;SDS011;4446;50.876;4.736;2022-07-01T06:05:17;16.48;;;7.05;;
8819;SDS011;4446;50.876;4.736;2022-07-01T06:07:46;12.85;;;6.80;;
8819;SDS011;4446;50.876;4.736;2022-07-01T06:10:16;11.13;;;6.55;;
8819;SDS011;4446;50.876;4.736;2022-07-01T06:12:43;15.20;;;6.80;;
8819;SDS011;4446;50.876;4.736;2022-07-01T06:15:11;17.70;;;6.85;;
8819;SDS011;4446;50.876;4.736;2022-07-01T06:17:42;15.32;;;7.03;;
8819;SDS011;4446;50.876;4.736;2022-07-01T06:20:10;12.88;;;6.75;;
8819;SDS011;4446;50.876;4.736;2022-07-01T06:22:37;16.73;;;7.05;;
8819;SDS011;4446;50.876;4.736;2022-07-01T06:25:05;15.15;;;6.60;;
8819;SDS011;4446;50.876;4.736;2022-07-01T06:27:37;10.05;;;6.40;;
8819;SDS011;4446;50.876;4.736;2022-07-01T06:30:06;13.50;;;7.15;;
8819;SDS011;4446;50.876;4.736;2022-07-01T06:32:33;11.05;;;6.20;;
8819;SDS011;4446;50.876;4.736;2022-07-01T06:35:01;12.80;;;6.85;;
8819;SDS011;4446;50.876;4.736;2022-07-01T06:37:29;13.88;;;6.72;;
8819;SDS011;4446;50.876;4.736;2022-07-01T06:39:59;9.48;;;5.60;;
8819;SDS011;4446;50.876;4.736;2022-07-01T06:42:26;10.43;;;5.78;;
8819;SDS011;4446;50.876;4.736;2022-07-01T06:44:53;12.60;;;5.63;;
8819;SDS011;4446;50.876;4.736;2022-07-01T06:47:20;10.98;;;5.93;;
8819;SDS011;4446;50.876;4.736;2022-07-01T06:49:47;9.45;;;6.10;;
8819;SDS011;4446;50.876;4.736;2022-07-01T06:52:14;11.18;;;5.70;;
8819;SDS011;4446;50.876;4.736;2022-07-01T06:54:42;12.43;;;5.68;;
8819;SDS011;4446;50.876;4.736;2022-07-01T06:57:09;8.50;;;5.70;;
8819;SDS011;4446;50.876;4.736;2022-07-01T06:59:36;10.23;;;5.80;;
8819;SDS011;4446;50.876;4.736;2022-07-01T07:02:03;10.88;;;5.40;;
8819;SDS011;4446;50.876;4.736;2022-07-01T07:04:32;8.80;;;5.20;;
8819;SDS011;4446;50.876;4.736;2022-07-01T07:06:59;7.47;;;4.90;;
8819;SDS011;4446;50.876;4.736;2022-07-01T07:09:26;8.35;;;4.50;;
8819;SDS011;4446;50.876;4.736;2022-07-01T07:11:55;7.90;;;4.60;;
8819;SDS011;4446;50.876;4.736;2022-07-01T07:14:22;6.38;;;4.25;;
8819;SDS011;4446;50.876;4.736;2022-07-01T07:16:50;7.93;;;4.38;;
8819;SDS011;4446;50.876;4.736;2022-07-01T07:19:19;7.28;;;4.28;;
8819;SDS011;4446;50.876;4.736;2022-07-01T07:21:46;4.10;;;3.42;;
8819;SDS011;4446;50.876;4.736;2022-07-01T07:24:13;5.50;;;3.88;;
8819;SDS011;4446;50.876;4.736;2022-07-01T07:26:40;7.78;;;3.55;;
8819;SDS011;4446;50.876;4.736;2022-07-01T07:29:09;4.22;;;3.35;;
8819;SDS011;4446;50.876;4.736;2022-07-01T07:31:36;5.88;;;3.20;;
8819;SDS011;4446;50.876;4.736;2022-07-01T07:34:03;4.93;;;2.63;;
8819;SDS011;4446;50.876;4.736;2022-07-01T07:36:30;3.53;;;2.60;;
8819;SDS011;4446;50.876;4.736;2022-07-01T07:38:57;6.20;;;2.72;;
8819;SDS011;4446;50.876;4.736;2022-07-01T07:41:24;4.15;;;2.30;;
8819;SDS011;4446;50.876;4.736;2022-07-01T07:43:51;6.32;;;2.45;;
8819;SDS011;4446;50.876;4.736;2022-07-01T07:46:20;4.10;;;2.33;;
8819;SDS011;4446;50.876;4.736;2022-07-01T07:48:47;5.60;;;2.47;;
8819;SDS011;4446;50.876;4.736;2022-07-01T07:51:14;5.28;;;2.03;;
8819;SDS011;4446;50.876;4.736;2022-07-01T07:53:43;6.55;;;2.65;;
8819;SDS011;4446;50.876;4.736;2022-07-01T07:56:11;3.08;;;1.70;;
8819;SDS011;4446;50.876;4.736;2022-07-01T07:58:38;4.47;;;2.00;;
8819;SDS011;4446;50.876;4.736;2022-07-01T08:01:07;4.75;;;1.90;;
8819;SDS011;4446;50.876;4.736;2022-07-01T08:03:36;3.25;;;1.55;;
8819;SDS011;4446;50.876;4.736;2022-07-01T08:06:03;3.83;;;1.80;;
8819;SDS011;4446;50.876;4.736;2022-07-01T08:08:30;2.50;;;1.50;;
8819;SDS011;4446;50.876;4.736;2022-07-01T08:10:58;3.72;;;1.73;;
8819;SDS011;4446;50.876;4.736;2022-07-01T08:13:27;5.68;;;1.85;;
8819;SDS011;4446;50.876;4.736;2022-07-01T08:15:55;3.83;;;1.63;;
8819;SDS011;4446;50.876;4.736;2022-07-01T08:18:22;2.67;;;1.60;;
8819;SDS011;4446;50.876;4.736;2022-07-01T08:20:51;4.60;;;1.70;;
8819;SDS011;4446;50.876;4.736;2022-07-01T08:23:18;2.10;;;1.48;;
8819;SDS011;4446;50.876;4.736;2022-07-01T08:25:46;1.98;;;1.30;;
8819;SDS011;4446;50.876;4.736;2022-07-01T08:28:13;4.68;;;1.50;;
8819;SDS011;4446;50.876;4.736;2022-07-01T08:30:40;3.05;;;1.38;;
8819;SDS011;4446;50.876;4.736;2022-07-01T08:33:07;5.32;;;1.73;;
8819;SDS011;4446;50.876;4.736;2022-07-01T08:35:36;2.55;;;1.63;;
8819;SDS011;4446;50.876;4.736;2022-07-01T08:38:05;3.63;;;1.73;;
8819;SDS011;4446;50.876;4.736;2022-07-01T08:40:33;4.25;;;1.80;;
8819;SDS011;4446;50.876;4.736;2022-07-01T08:43:02;4.03;;;1.80;;
8819;SDS011;4446;50.876;4.736;2022-07-01T08:45:31;3.13;;;1.70;;
8819;SDS011;4446;50.876;4.736;2022-07-01T08:48:01;4.28;;;1.50;;
8819;SDS011;4446;50.876;4.736;2022-07-01T08:50:30;2.45;;;1.40;;
8819;SDS011;4446;50.876;4.736;2022-07-01T08:52:59;1.40;;;1.20;;
8819;SDS011;4446;50.876;4.736;2022-07-01T08:55:28;3.13;;;1.65;;
8819;SDS011;4446;50.876;4.736;2022-07-01T08:57:55;4.45;;;1.70;;
8819;SDS011;4446;50.876;4.736;2022-07-01T09:00:28;3.60;;;1.70;;
8819;SDS011;4446;50.876;4.736;2022-07-01T09:02:58;2.50;;;1.48;;
8819;SDS011;4446;50.876;4.736;2022-07-01T09:05:27;2.58;;;1.50;;
8819;SDS011;4446;50.876;4.736;2022-07-01T09:07:56;2.13;;;1.33;;
8819;SDS011;4446;50.876;4.736;2022-07-01T09:10:24;3.55;;;1.42;;
8819;SDS011;4446;50.876;4.736;2022-07-01T09:12:53;1.67;;;1.42;;
8819;SDS011;4446;50.876;4.736;2022-07-01T09:15:21;2.22;;;1.20;;
8819;SDS011;4446;50.876;4.736;2022-07-01T09:17:53;2.05;;;1.80;;
8819;SDS011;4446;50.876;4.736;2022-07-01T09:20:26;3.20;;;1.40;;
8819;SDS011;4446;50.876;4.736;2022-07-01T09:23:02;1.30;;;1.20;;
8819;SDS011;4446;50.876;4.736;2022-07-01T09:25:32;4.22;;;1.70;;
8819;SDS011;4446;50.876;4.736;2022-07-01T09:28:08;3.53;;;1.88;;
8819;SDS011;4446;50.876;4.736;2022-07-01T09:30:38;4.63;;;2.30;;
8819;SDS011;4446;50.876;4.736;2022-07-01T09:33:06;2.90;;;1.80;;
8819;SDS011;4446;50.876;4.736;2022-07-01T09:35:35;2.40;;;1.70;;
8819;SDS011;4446;50.876;4.736;2022-07-01T09:38:03;2.90;;;1.42;;
8819;SDS011;4446;50.876;4.736;2022-07-01T09:40:48;2.45;;;1.60;;
8819;SDS011;4446;50.876;4.736;2022-07-01T09:43:22;4.07;;;2.10;;
8819;SDS011;4446;50.876;4.736;2022-07-01T09:45:52;5.05;;;2.13;;
8819;SDS011;4446;50.876;4.736;2022-07-01T09:48:21;5.35;;;2.22;;
8819;SDS011;4446;50.876;4.736;2022-07-01T09:50:50;4.18;;;2.20;;
8819;SDS011;4446;50.876;4.736;2022-07-01T09:53:17;4.05;;;2.30;;
8819;SDS011;4446;50.876;4.736;2022-07-01T09:55:45;3.88;;;2.47;;
8819;SDS011;4446;50.876;4.736;2022-07-01T09:58:13;5.88;;;2.70;;
8819;SDS011;4446;50.876;4.736;2022-07-01T10:00:42;3.95;;;2.60;;
8819;SDS011;4446;50.876;4.736;2022-07-01T10:03:10;3.92;;;2.53;;
8819;SDS011;4446;50.876;4.736;2022-07-01T10:05:39;4.43;;;2.50;;
8819;SDS011;4446;50.876;4.736;2022-07-01T10:08:14;4.00;;;2.30;;
8819;SDS011;4446;50.876;4.736;2022-07-01T10:10:57;5.30;;;2.25;;
8819;SDS011;4446;50.876;4.736;2022-07-01T10:13:37;3.03;;;2.50;;
8819;SDS011;4446;50.876;4.736;2022-07-01T10:16:07;4.45;;;2.47;;
8819;SDS011;4446;50.876;4.736;2022-07-01T10:18:35;3.08;;;2.28;;
8819;SDS011;4446;50.876;4.736;2022-07-01T10:21:02;3.88;;;2.03;;
8819;SDS011;4446;50.876;4.736;2022-07-01T10:23:36;3.00;;;2.20;;
8819;SDS011;4446;50.876;4.736;2022-07-01T10:26:05;3.72;;;2.22;;
8819;SDS011;4446;50.876;4.736;2022-07-01T10:28:42;4.32;;;2.05;;
8819;SDS011;4446;50.876;4.736;2022-07-01T10:31:13;2.17;;;1.63;;
8819;SDS011;4446;50.876;4.736;2022-07-01T10:33:43;2.80;;;1.70;;
8819;SDS011;4446;50.876;4.736;2022-07-01T10:36:13;3.60;;;2.05;;
8819;SDS011;4446;50.876;4.736;2022-07-01T10:39:09;2.95;;;1.63;;
8819;SDS011;4446;50.876;4.736;2022-07-01T10:41:54;3.05;;;1.65;;
8819;SDS011;4446;50.876;4.736;2022-07-01T10:44:26;1.92;;;1.70;;
8819;SDS011;4446;50.876;4.736;2022-07-01T10:46:56;2.50;;;1.70;;
8819;SDS011;4446;50.876;4.736;2022-07-01T10:52:25;2.58;;;1.50;;
8819;SDS011;4446;50.876;4.736;2022-07-01T10:54:53;3.20;;;1.40;;
8819;SDS011;4446;50.876;4.736;2022-07-01T10:57:23;2.20;;;1.60;;
8819;SDS011;4446;50.876;4.736;2022-07-01T10:59:53;2.03;;;1.60;;
8819;SDS011;4446;50.876;4.736;2022-07-01T11:02:24;5.60;;;2.10;;
8819;SDS011;4446;50.876;4.736;2022-07-01T11:04:54;2.35;;;1.80;;
8819;SDS011;4446;50.876;4.736;2022-07-01T11:07:25;3.63;;;1.95;;
8819;SDS011;4446;50.876;4.736;2022-07-01T11:09:53;1.70;;;1.60;;
8819;SDS011;4446;50.876;4.736;2022-07-01T11:12:21;4.43;;;2.00;;
8819;SDS011;4446;50.876;4.736;2022-07-01T11:14:49;2.22;;;1.60;;
8819;SDS011;4446;50.876;4.736;2022-07-01T11:17:17;2.13;;;1.90;;
8819;SDS011;4446;50.876;4.736;2022-07-01T11:19:48;2.15;;;1.63;;
8819;SDS011;4446;50.876;4.736;2022-07-01T11:22:17;2.10;;;1.70;;
8819;SDS011;4446;50.876;4.736;2022-07-01T11:24:46;2.10;;;1.75;;
8819;SDS011;4446;50.876;4.736;2022-07-01T11:27:18;2.35;;;1.73;;
8819;SDS011;4446;50.876;4.736;2022-07-01T11:29:50;2.30;;;1.90;;
8819;SDS011;4446;50.876;4.736;2022-07-01T11:32:23;3.03;;;2.03;;
8819;SDS011;4446;50.876;4.736;2022-07-01T11:34:52;4.05;;;1.90;;
8819;SDS011;4446;50.876;4.736;2022-07-01T11:37:19;4.50;;;1.83;;
8819;SDS011;4446;50.876;4.736;2022-07-01T11:40:05;4.25;;;1.88;;
8819;SDS011;4446;50.876;4.736;2022-07-01T11:42:34;3.10;;;2.05;;
8819;SDS011;4446;50.876;4.736;2022-07-01T11:45:01;4.13;;;2.20;;
8819;SDS011;4446;50.876;4.736;2022-07-01T11:47:29;2.40;;;1.85;;
8819;SDS011;4446;50.876;4.736;2022-07-01T11:49:58;2.83;;;1.95;;
8819;SDS011;4446;50.876;4.736;2022-07-01T11:52:26;2.25;;;2.00;;
8819;SDS011;4446;50.876;4.736;2022-07-01T11:54:54;3.22;;;2.03;;
8819;SDS011;4446;50.876;4.736;2022-07-01T11:57:24;4.60;;;1.95;;
8819;SDS011;4446;50.876;4.736;2022-07-01T11:59:54;3.05;;;1.70;;
8819;SDS011;4446;50.876;4.736;2022-07-01T12:02:23;2.45;;;1.60;;
8819;SDS011;4446;50.876;4.736;2022-07-01T12:04:51;2.25;;;1.60;;
8819;SDS011;4446;50.876;4.736;2022-07-01T12:07:20;1.95;;;1.73;;
8819;SDS011;4446;50.876;4.736;2022-07-01T12:09:48;3.60;;;1.75;;
8819;SDS011;4446;50.876;4.736;2022-07-01T12:12:15;1.65;;;1.55;;
8819;SDS011;4446;50.876;4.736;2022-07-01T12:14:49;2.53;;;1.77;;
8819;SDS011;4446;50.876;4.736;2022-07-01T12:17:17;2.47;;;1.70;;
8819;SDS011;4446;50.876;4.736;2022-07-01T12:19:46;3.00;;;2.05;;
8819;SDS011;4446;50.876;4.736;2022-07-01T12:22:14;3.40;;;1.55;;
8819;SDS011;4446;50.876;4.736;2022-07-01T12:24:45;3.92;;;1.80;;
8819;SDS011;4446;50.876;4.736;2022-07-01T12:27:13;2.03;;;1.83;;
8819;SDS011;4446;50.876;4.736;2022-07-01T12:29:51;2.35;;;1.80;;
8819;SDS011;4446;50.876;4.736;2022-07-01T12:32:20;1.95;;;1.70;;
8819;SDS011;4446;50.876;4.736;2022-07-01T12:34:49;1.95;;;1.80;;
8819;SDS011;4446;50.876;4.736;2022-07-01T12:37:18;3.78;;;1.80;;
8819;SDS011;4446;50.876;4.736;2022-07-01T12:39:48;1.60;;;1.50;;
8819;SDS011;4446;50.876;4.736;2022-07-01T12:42:20;1.90;;;1.48;;
8819;SDS011;4446;50.876;4.736;2022-07-01T12:44:48;2.45;;;1.40;;
8819;SDS011;4446;50.876;4.736;2022-07-01T12:47:19;1.67;;;1.20;;
8819;SDS011;4446;50.876;4.736;2022-07-01T12:49:47;2.58;;;1.33;;
8819;SDS011;4446;50.876;4.736;2022-07-01T12:52:24;2.22;;;1.42;;
8819;SDS011;4446;50.876;4.736;2022-07-01T12:54:54;2.60;;;1.30;;
8819;SDS011;4446;50.876;4.736;2022-07-01T12:57:29;3.50;;;1.30;;
8819;SDS011;4446;50.876;4.736;2022-07-01T12:59:56;1.70;;;1.23;;
8819;SDS011;4446;50.876;4.736;2022-07-01T13:02:24;2.03;;;1.60;;
8819;SDS011;4446;50.876;4.736;2022-07-01T13:04:51;1.20;;;1.00;;
8819;SDS011;4446;50.876;4.736;2022-07-01T13:07:18;2.25;;;1.65;;
8819;SDS011;4446;50.876;4.736;2022-07-01T13:09:45;1.38;;;1.20;;
8819;SDS011;4446;50.876;4.736;2022-07-01T13:12:13;1.90;;;1.13;;
8819;SDS011;4446;50.876;4.736;2022-07-01T13:14:41;2.83;;;1.00;;
8819;SDS011;4446;50.876;4.736;2022-07-01T13:17:09;3.67;;;1.30;;
8819;SDS011;4446;50.876;4.736;2022-07-01T13:19:36;2.33;;;1.20;;
8819;SDS011;4446;50.876;4.736;2022-07-01T13:22:03;1.77;;;1.27;;
8819;SDS011;4446;50.876;4.736;2022-07-01T13:24:30;1.90;;;1.20;;
8819;SDS011;4446;50.876;4.736;2022-07-01T13:26:57;1.38;;;1.27;;
8819;SDS011;4446;50.876;4.736;2022-07-01T13:29:26;1.23;;;1.13;;
8819;SDS011;4446;50.876;4.736;2022-07-01T13:31:53;2.08;;;1.00;;
8819;SDS011;4446;50.876;4.736;2022-07-01T13:34:20;2.50;;;1.20;;
8819;SDS011;4446;50.876;4.736;2022-07-01T13:36:47;2.25;;;1.20;;
8819;SDS011;4446;50.876;4.736;2022-07-01T13:39:14;1.10;;;1.00;;
8819;SDS011;4446;50.876;4.736;2022-07-01T13:41:41;3.17;;;1.10;;
8819;SDS011;4446;50.876;4.736;2022-07-01T13:44:08;1.70;;;1.10;;
8819;SDS011;4446;50.876;4.736;2022-07-01T13:46:37;1.75;;;1.02;;
8819;SDS011;4446;50.876;4.736;2022-07-01T13:49:04;0.98;;;0.93;;
8819;SDS011;4446;50.876;4.736;2022-07-01T13:51:32;2.15;;;1.20;;
8819;SDS011;4446;50.876;4.736;2022-07-01T13:53:59;1.35;;;0.90;;
8819;SDS011;4446;50.876;4.736;2022-07-01T13:56:26;1.52;;;0.90;;
8819;SDS011;4446;50.876;4.736;2022-07-01T13:58:54;1.20;;;1.00;;
8819;SDS011;4446;50.876;4.736;2022-07-01T14:01:21;1.58;;;1.00;;
8819;SDS011;4446;50.876;4.736;2022-07-01T14:03:50;1.45;;;1.02;;
8819;SDS011;4446;50.876;4.736;2022-07-01T14:06:18;4.22;;;1.10;;
8819;SDS011;4446;50.876;4.736;2022-07-01T14:08:46;1.75;;;1.08;;
8819;SDS011;4446;50.876;4.736;2022-07-01T14:11:13;2.85;;;1.00;;
8819;SDS011;4446;50.876;4.736;2022-07-01T14:13:41;1.38;;;1.00;;
8819;SDS011;4446;50.876;4.736;2022-07-01T14:16:08;1.92;;;1.00;;
8819;SDS011;4446;50.876;4.736;2022-07-01T14:18:35;1.20;;;0.90;;
8819;SDS011;4446;50.876;4.736;2022-07-01T14:21:04;1.52;;;0.98;;
8819;SDS011;4446;50.876;4.736;2022-07-01T14:23:33;2.50;;;0.90;;
8819;SDS011;4446;50.876;4.736;2022-07-01T14:26:00;2.80;;;1.08;;
8819;SDS011;4446;50.876;4.736;2022-07-01T14:28:27;1.88;;;1.20;;
8819;SDS011;4446;50.876;4.736;2022-07-01T14:30:54;1.33;;;1.00;;
8819;SDS011;4446;50.876;4.736;2022-07-01T14:33:21;2.05;;;1.02;;
8819;SDS011;4446;50.876;4.736;2022-07-01T14:35:48;2.05;;;1.10;;
8819;SDS011;4446;50.876;4.736;2022-07-01T14:38:17;1.35;;;1.00;;
8819;SDS011;4446;50.876;4.736;2022-07-01T14:40:44;1.25;;;0.95;;
8819;SDS011;4446;50.876;4.736;2022-07-01T14:43:12;1.98;;;0.90;;
8819;SDS011;4446;50.876;4.736;2022-07-01T14:45:39;3.20;;;0.90;;
8819;SDS011;4446;50.876;4.736;2022-07-01T14:48:06;2.80;;;1.25;;
8819;SDS011;4446;50.876;4.736;2022-07-01T14:50:34;1.75;;;1.02;;
8819;SDS011;4446;50.876;4.736;2022-07-01T14:53:01;2.25;;;1.02;;
8819;SDS011;4446;50.876;4.736;2022-07-01T14:55:31;1.38;;;1.00;;
8819;SDS011;4446;50.876;4.736;2022-07-01T14:57:58;2.35;;;1.02;;
8819;SDS011;4446;50.876;4.736;2022-07-01T15:00:25;2.60;;;1.38;;
8819;SDS011;4446;50.876;4.736;2022-07-01T15:02:54;1.38;;;1.00;;
8819;SDS011;4446;50.876;4.736;2022-07-01T15:05:21;1.10;;;1.00;;
8819;SDS011;4446;50.876;4.736;2022-07-01T15:07:48;1.58;;;1.00;;
8819;SDS011;4446;50.876;4.736;2022-07-01T15:10:16;1.27;;;0.95;;
8819;SDS011;4446;50.876;4.736;2022-07-01T15:12:44;2.28;;;1.00;;
8819;SDS011;4446;50.876;4.736;2022-07-01T15:15:12;1.95;;;1.20;;
8819;SDS011;4446;50.876;4.736;2022-07-01T15:17:40;1.75;;;1.05;;
8819;SDS011;4446;50.876;4.736;2022-07-01T15:20:09;2.00;;;1.05;;
8819;SDS011;4446;50.876;4.736;2022-07-01T15:22:37;1.23;;;1.13;;